sensor_id;sensor_type;location;lat;lon;timestamp;temperature;humidity
19085;DHT22;9675;51.538;6.728;2022-08-11T00:00:34;26.80;92.60
19085;DHT22;9675;51.538;6.728;2022-08-11T00:03:05;26.80;92.60
19085;DHT22;9675;51.538;6.728;2022-08-11T00:05:43;26.80;92.70
19085;DHT22;9675;51.538;6.728;2022-08-11T00:08:20;26.70;92.70
19085;DHT22;9675;51.538;6.728;2022-08-11T00:10:52;26.70;93.10
19085;DHT22;9675;51.538;6.728;2022-08-11T00:13:21;26.60;92.70
19085;DHT22;9675;51.538;6.728;2022-08-11T00:15:56;26.60;92.80
19085;DHT22;9675;51.538;6.728;2022-08-11T00:18:25;26.50;92.80
19085;DHT22;9675;51.538;6.728;2022-08-11T00:20:57;26.50;92.90
19085;DHT22;9675;51.538;6.728;2022-08-11T00:23:26;26.50;92.90
19085;DHT22;9675;51.538;6.728;2022-08-11T00:25:54;26.50;93.00
19085;DHT22;9675;51.538;6.728;2022-08-11T00:28:24;26.40;93.00
19085;DHT22;9675;51.538;6.728;2022-08-11T00:30:54;26.40;93.40
19085;DHT22;9675;51.538;6.728;2022-08-11T00:33:30;26.40;93.10
19085;DHT22;9675;51.538;6.728;2022-08-11T00:36:02;26.30;93.10
19085;DHT22;9675;51.538;6.728;2022-08-11T00:38:33;26.30;93.20
19085;DHT22;9675;51.538;6.728;2022-08-11T00:41:15;26.20;93.20
19085;DHT22;9675;51.538;6.728;2022-08-11T00:44:09;26.20;93.30
19085;DHT22;9675;51.538;6.728;2022-08-11T00:47:12;26.10;93.30
19085;DHT22;9675;51.538;6.728;2022-08-11T00:50:11;26.10;93.30
19085;DHT22;9675;51.538;6.728;2022-08-11T00:52:58;26.10;93.40
19085;DHT22;9675;51.538;6.728;2022-08-11T01:02:13;26.00;93.60
19085;DHT22;9675;51.538;6.728;2022-08-11T01:08:38;25.90;93.60
19085;DHT22;9675;51.538;6.728;2022-08-11T01:25:26;25.60;93.80
19085;DHT22;9675;51.538;6.728;2022-08-11T01:28:47;25.50;93.90
19085;DHT22;9675;51.538;6.728;2022-08-11T01:32:06;25.50;93.90
19085;DHT22;9675;51.538;6.728;2022-08-11T01:35:20;25.50;94.00
19085;DHT22;9675;51.538;6.728;2022-08-11T01:38:26;25.40;94.00
19085;DHT22;9675;51.538;6.728;2022-08-11T01:41:25;25.40;94.10
19085;DHT22;9675;51.538;6.728;2022-08-11T01:45:01;25.30;94.10
19085;DHT22;9675;51.538;6.728;2022-08-11T01:47:37;25.30;94.20
19085;DHT22;9675;51.538;6.728;2022-08-11T01:50:29;25.30;94.20
19085;DHT22;9675;51.538;6.728;2022-08-11T01:53:17;25.20;94.20
19085;DHT22;9675;51.538;6.728;2022-08-11T01:56:01;25.20;94.30
19085;DHT22;9675;51.538;6.728;2022-08-11T01:58:59;25.10;94.30
19085;DHT22;9675;51.538;6.728;2022-08-11T02:01:53;25.10;94.40
19085;DHT22;9675;51.538;6.728;2022-08-11T02:04:35;25.00;94.40
19085;DHT22;9675;51.538;6.728;2022-08-11T02:07:16;25.00;94.40
19085;DHT22;9675;51.538;6.728;2022-08-11T02:09:59;25.00;94.50
19085;DHT22;9675;51.538;6.728;2022-08-11T02:12:53;24.90;94.50
19085;DHT22;9675;51.538;6.728;2022-08-11T02:15:28;24.90;94.50
19085;DHT22;9675;51.538;6.728;2022-08-11T02:18:05;24.90;94.60
19085;DHT22;9675;51.538;6.728;2022-08-11T02:20:44;24.80;94.60
19085;DHT22;9675;51.538;6.728;2022-08-11T02:23:50;24.80;94.70
19085;DHT22;9675;51.538;6.728;2022-08-11T02:26:22;24.80;94.70
19085;DHT22;9675;51.538;6.728;2022-08-11T02:29:04;24.80;94.80
19085;DHT22;9675;51.538;6.728;2022-08-11T02:31:46;24.70;94.80
19085;DHT22;9675;51.538;6.728;2022-08-11T02:34:44;24.70;94.80
19085;DHT22;9675;51.538;6.728;2022-08-11T02:37:26;24.60;94.90
19085;DHT22;9675;51.538;6.728;2022-08-11T02:40:17;24.60;94.90
19085;DHT22;9675;51.538;6.728;2022-08-11T02:43:08;24.60;95.00
19085;DHT22;9675;51.538;6.728;2022-08-11T02:45:52;24.50;95.00
19085;DHT22;9675;51.538;6.728;2022-08-11T02:48:49;24.50;95.10
19085;DHT22;9675;51.538;6.728;2022-08-11T02:51:53;24.50;95.10
19085;DHT22;9675;51.538;6.728;2022-08-11T02:54:32;24.50;95.20
19085;DHT22;9675;51.538;6.728;2022-08-11T02:57:17;24.40;95.20
19085;DHT22;9675;51.538;6.728;2022-08-11T02:59:56;24.40;95.20
19085;DHT22;9675;51.538;6.728;2022-08-11T03:02:53;24.30;95.20
19085;DHT22;9675;51.538;6.728;2022-08-11T03:05:45;24.30;95.30
19085;DHT22;9675;51.538;6.728;2022-08-11T03:08:30;24.30;95.40
19085;DHT22;9675;51.538;6.728;2022-08-11T03:11:20;24.20;95.40
19085;DHT22;9675;51.538;6.728;2022-08-11T03:14:24;24.20;95.50
19085;DHT22;9675;51.538;6.728;2022-08-11T03:17:25;24.20;95.50
19085;DHT22;9675;51.538;6.728;2022-08-11T03:20:14;24.10;95.60
19085;DHT22;9675;51.538;6.728;2022-08-11T03:22:59;24.10;95.60
19085;DHT22;9675;51.538;6.728;2022-08-11T03:25:43;24.10;95.70
19085;DHT22;9675;51.538;6.728;2022-08-11T03:28:26;24.00;95.70
19085;DHT22;9675;51.538;6.728;2022-08-11T03:31:07;24.00;95.80
19085;DHT22;9675;51.538;6.728;2022-08-11T03:33:48;23.90;95.80
19085;DHT22;9675;51.538;6.728;2022-08-11T03:40:28;23.90;95.90
19085;DHT22;9675;51.538;6.728;2022-08-11T03:43:46;23.90;95.90
19085;DHT22;9675;51.538;6.728;2022-08-11T03:46:34;23.80;96.50
19085;DHT22;9675;51.538;6.728;2022-08-11T03:49:21;23.80;96.20
19085;DHT22;9675;51.538;6.728;2022-08-11T03:52:07;23.70;96.10
19085;DHT22;9675;51.538;6.728;2022-08-11T03:54:53;23.70;96.20
19085;DHT22;9675;51.538;6.728;2022-08-11T04:04:55;23.60;96.30
19085;DHT22;9675;51.538;6.728;2022-08-11T04:08:06;23.60;96.40
19085;DHT22;9675;51.538;6.728;2022-08-11T04:14:21;23.50;96.40
19085;DHT22;9675;51.538;6.728;2022-08-11T04:17:58;23.50;96.50
19085;DHT22;9675;51.538;6.728;2022-08-11T04:21:10;23.40;96.60
19085;DHT22;9675;51.538;6.728;2022-08-11T04:24:21;23.40;96.70
19085;DHT22;9675;51.538;6.728;2022-08-11T04:27:18;23.40;96.80
19085;DHT22;9675;51.538;6.728;2022-08-11T04:30:06;23.30;96.80
19085;DHT22;9675;51.538;6.728;2022-08-11T04:33:29;23.30;96.90
19085;DHT22;9675;51.538;6.728;2022-08-11T04:36:32;23.20;96.90
19085;DHT22;9675;51.538;6.728;2022-08-11T04:39:53;23.20;97.00
19085;DHT22;9675;51.538;6.728;2022-08-11T04:49:53;23.10;97.00
19085;DHT22;9675;51.538;6.728;2022-08-11T04:56:22;23.00;97.10
19085;DHT22;9675;51.538;6.728;2022-08-11T04:59:42;23.00;97.20
19085;DHT22;9675;51.538;6.728;2022-08-11T05:03:11;23.00;97.30
19085;DHT22;9675;51.538;6.728;2022-08-11T05:06:38;22.90;97.30
19085;DHT22;9675;51.538;6.728;2022-08-11T05:09:45;22.90;97.30
19085;DHT22;9675;51.538;6.728;2022-08-11T05:12:40;22.90;97.40
19085;DHT22;9675;51.538;6.728;2022-08-11T05:15:12;22.80;97.40
19085;DHT22;9675;51.538;6.728;2022-08-11T05:18:13;22.80;97.40
19085;DHT22;9675;51.538;6.728;2022-08-11T05:21:05;22.80;97.50
19085;DHT22;9675;51.538;6.728;2022-08-11T05:23:56;22.80;97.50
19085;DHT22;9675;51.538;6.728;2022-08-11T05:26:53;22.70;97.60
19085;DHT22;9675;51.538;6.728;2022-08-11T05:29:45;22.70;97.60
19085;DHT22;9675;51.538;6.728;2022-08-11T05:32:37;22.70;97.60
19085;DHT22;9675;51.538;6.728;2022-08-11T05:35:26;22.70;97.70
19085;DHT22;9675;51.538;6.728;2022-08-11T05:37:58;22.70;97.70
19085;DHT22;9675;51.538;6.728;2022-08-11T05:40:48;22.70;97.70
19085;DHT22;9675;51.538;6.728;2022-08-11T05:43:40;22.60;97.80
19085;DHT22;9675;51.538;6.728;2022-08-11T05:46:28;22.60;97.80
19085;DHT22;9675;51.538;6.728;2022-08-11T05:49:22;22.60;97.90
19085;DHT22;9675;51.538;6.728;2022-08-11T05:52:13;22.60;97.90
19085;DHT22;9675;51.538;6.728;2022-08-11T05:55:02;22.60;97.90
19085;DHT22;9675;51.538;6.728;2022-08-11T05:57:48;22.60;97.90
19085;DHT22;9675;51.538;6.728;2022-08-11T06:00:23;22.60;97.90
19085;DHT22;9675;51.538;6.728;2022-08-11T06:02:53;22.60;98.00
19085;DHT22;9675;51.538;6.728;2022-08-11T06:05:22;22.60;98.00
19085;DHT22;9675;51.538;6.728;2022-08-11T06:07:53;22.60;98.00
19085;DHT22;9675;51.538;6.728;2022-08-11T06:10:27;22.60;98.00
19085;DHT22;9675;51.538;6.728;2022-08-11T06:12:58;22.60;98.00
19085;DHT22;9675;51.538;6.728;2022-08-11T06:15:30;22.60;98.00
19085;DHT22;9675;51.538;6.728;2022-08-11T06:18:00;22.60;98.00
19085;DHT22;9675;51.538;6.728;2022-08-11T06:20:29;22.60;98.00
19085;DHT22;9675;51.538;6.728;2022-08-11T06:23:04;22.60;98.00
19085;DHT22;9675;51.538;6.728;2022-08-11T06:25:35;22.60;98.10
19085;DHT22;9675;51.538;6.728;2022-08-11T06:28:05;22.70;98.10
19085;DHT22;9675;51.538;6.728;2022-08-11T06:30:37;22.70;98.10
19085;DHT22;9675;51.538;6.728;2022-08-11T06:33:08;22.70;98.10
19085;DHT22;9675;51.538;6.728;2022-08-11T06:35:46;22.70;98.20
19085;DHT22;9675;51.538;6.728;2022-08-11T06:38:35;22.70;98.30
19085;DHT22;9675;51.538;6.728;2022-08-11T06:41:17;22.70;98.20
19085;DHT22;9675;51.538;6.728;2022-08-11T06:44:06;22.80;98.10
19085;DHT22;9675;51.538;6.728;2022-08-11T06:46:50;22.80;98.20
19085;DHT22;9675;51.538;6.728;2022-08-11T06:49:22;22.80;98.20
19085;DHT22;9675;51.538;6.728;2022-08-11T06:52:18;22.80;98.20
19085;DHT22;9675;51.538;6.728;2022-08-11T06:54:54;22.90;98.30
19085;DHT22;9675;51.538;6.728;2022-08-11T06:57:32;22.90;98.20
19085;DHT22;9675;51.538;6.728;2022-08-11T07:00:17;23.00;98.10
19085;DHT22;9675;51.538;6.728;2022-08-11T07:02:58;23.00;98.20
19085;DHT22;9675;51.538;6.728;2022-08-11T07:05:37;23.00;98.10
19085;DHT22;9675;51.538;6.728;2022-08-11T07:08:39;23.10;98.00
19085;DHT22;9675;51.538;6.728;2022-08-11T07:12:02;23.10;98.00
19085;DHT22;9675;51.538;6.728;2022-08-11T07:15:05;23.20;98.00
19085;DHT22;9675;51.538;6.728;2022-08-11T07:17:59;23.20;98.10
19085;DHT22;9675;51.538;6.728;2022-08-11T07:20:48;23.30;98.20
19085;DHT22;9675;51.538;6.728;2022-08-11T07:23:35;23.40;98.30
19085;DHT22;9675;51.538;6.728;2022-08-11T07:26:23;23.40;98.60
19085;DHT22;9675;51.538;6.728;2022-08-11T07:29:11;23.50;97.90
19085;DHT22;9675;51.538;6.728;2022-08-11T07:31:44;23.60;98.00
19085;DHT22;9675;51.538;6.728;2022-08-11T07:34:20;23.60;98.00
19085;DHT22;9675;51.538;6.728;2022-08-11T07:36:54;23.70;98.10
19085;DHT22;9675;51.538;6.728;2022-08-11T07:39:24;23.80;98.00
19085;DHT22;9675;51.538;6.728;2022-08-11T07:41:54;23.80;98.00
19085;DHT22;9675;51.538;6.728;2022-08-11T07:44:25;23.90;98.10
19085;DHT22;9675;51.538;6.728;2022-08-11T07:46:55;24.00;97.90
19085;DHT22;9675;51.538;6.728;2022-08-11T07:49:44;24.10;98.30
19085;DHT22;9675;51.538;6.728;2022-08-11T07:52:33;24.20;97.90
19085;DHT22;9675;51.538;6.728;2022-08-11T07:55:07;24.30;97.80
19085;DHT22;9675;51.538;6.728;2022-08-11T07:57:39;24.40;97.70
19085;DHT22;9675;51.538;6.728;2022-08-11T08:00:27;24.50;97.70
19085;DHT22;9675;51.538;6.728;2022-08-11T08:03:12;24.50;97.60
19085;DHT22;9675;51.538;6.728;2022-08-11T08:05:58;24.60;97.50
19085;DHT22;9675;51.538;6.728;2022-08-11T08:08:43;24.70;97.50
19085;DHT22;9675;51.538;6.728;2022-08-11T08:11:28;24.80;97.40
19085;DHT22;9675;51.538;6.728;2022-08-11T08:14:13;24.90;97.10
19085;DHT22;9675;51.538;6.728;2022-08-11T08:17:01;25.00;96.90
19085;DHT22;9675;51.538;6.728;2022-08-11T08:19:47;25.10;96.90
19085;DHT22;9675;51.538;6.728;2022-08-11T08:22:17;25.30;97.00
19085;DHT22;9675;51.538;6.728;2022-08-11T08:24:46;25.30;96.70
19085;DHT22;9675;51.538;6.728;2022-08-11T08:27:14;25.40;96.80
19085;DHT22;9675;51.538;6.728;2022-08-11T08:29:44;25.50;96.70
19085;DHT22;9675;51.538;6.728;2022-08-11T08:32:29;25.60;96.80
19085;DHT22;9675;51.538;6.728;2022-08-11T08:35:00;25.70;96.70
19085;DHT22;9675;51.538;6.728;2022-08-11T08:37:30;25.90;96.60
19085;DHT22;9675;51.538;6.728;2022-08-11T08:39:57;26.00;96.50
19085;DHT22;9675;51.538;6.728;2022-08-11T08:42:29;26.10;96.30
19085;DHT22;9675;51.538;6.728;2022-08-11T08:45:04;26.20;96.20
19085;DHT22;9675;51.538;6.728;2022-08-11T08:47:35;26.30;96.30
19085;DHT22;9675;51.538;6.728;2022-08-11T08:50:06;26.40;96.20
19085;DHT22;9675;51.538;6.728;2022-08-11T08:52:44;26.50;96.00
19085;DHT22;9675;51.538;6.728;2022-08-11T08:55:17;26.60;95.40
19085;DHT22;9675;51.538;6.728;2022-08-11T08:57:48;26.80;95.80
19085;DHT22;9675;51.538;6.728;2022-08-11T09:00:18;26.90;95.50
19085;DHT22;9675;51.538;6.728;2022-08-11T09:02:46;27.00;95.40
19085;DHT22;9675;51.538;6.728;2022-08-11T09:05:16;27.10;95.10
19085;DHT22;9675;51.538;6.728;2022-08-11T09:07:49;27.20;95.20
19085;DHT22;9675;51.538;6.728;2022-08-11T09:10:23;27.20;95.20
19085;DHT22;9675;51.538;6.728;2022-08-11T09:12:52;27.30;95.20
19085;DHT22;9675;51.538;6.728;2022-08-11T09:15:20;27.40;94.80
19085;DHT22;9675;51.538;6.728;2022-08-11T09:17:52;27.60;95.00
19085;DHT22;9675;51.538;6.728;2022-08-11T09:20:33;27.70;94.80
19085;DHT22;9675;51.538;6.728;2022-08-11T09:23:04;27.80;94.80
19085;DHT22;9675;51.538;6.728;2022-08-11T09:25:52;27.80;94.00
19085;DHT22;9675;51.538;6.728;2022-08-11T09:28:41;28.00;94.30
19085;DHT22;9675;51.538;6.728;2022-08-11T09:31:10;28.20;94.10
19085;DHT22;9675;51.538;6.728;2022-08-11T09:33:39;28.30;94.10
19085;DHT22;9675;51.538;6.728;2022-08-11T09:36:08;28.40;93.90
19085;DHT22;9675;51.538;6.728;2022-08-11T09:38:57;28.50;94.00
19085;DHT22;9675;51.538;6.728;2022-08-11T09:41:43;28.60;93.90
19085;DHT22;9675;51.538;6.728;2022-08-11T09:44:12;28.70;93.50
19085;DHT22;9675;51.538;6.728;2022-08-11T09:46:57;28.80;93.40
19085;DHT22;9675;51.538;6.728;2022-08-11T09:49:25;29.00;93.50
19085;DHT22;9675;51.538;6.728;2022-08-11T09:51:54;29.20;93.20
19085;DHT22;9675;51.538;6.728;2022-08-11T09:54:24;29.20;93.00
19085;DHT22;9675;51.538;6.728;2022-08-11T09:56:52;29.30;93.20
19085;DHT22;9675;51.538;6.728;2022-08-11T09:59:37;29.40;93.00
19085;DHT22;9675;51.538;6.728;2022-08-11T10:02:06;29.50;92.60
19085;DHT22;9675;51.538;6.728;2022-08-11T10:04:39;29.60;92.30
19085;DHT22;9675;51.538;6.728;2022-08-11T10:07:13;29.80;92.20
19085;DHT22;9675;51.538;6.728;2022-08-11T10:09:45;29.90;91.80
19085;DHT22;9675;51.538;6.728;2022-08-11T10:12:20;30.00;91.70
19085;DHT22;9675;51.538;6.728;2022-08-11T10:14:52;30.00;92.40
19085;DHT22;9675;51.538;6.728;2022-08-11T10:17:38;30.10;91.90
19085;DHT22;9675;51.538;6.728;2022-08-11T10:20:33;30.30;91.60
19085;DHT22;9675;51.538;6.728;2022-08-11T10:23:03;30.40;91.30
19085;DHT22;9675;51.538;6.728;2022-08-11T10:25:49;30.50;91.60
19085;DHT22;9675;51.538;6.728;2022-08-11T10:28:35;30.60;91.50
19085;DHT22;9675;51.538;6.728;2022-08-11T10:31:03;30.70;91.20
19085;DHT22;9675;51.538;6.728;2022-08-11T10:33:49;30.80;90.80
19085;DHT22;9675;51.538;6.728;2022-08-11T10:36:27;30.90;90.80
19085;DHT22;9675;51.538;6.728;2022-08-11T10:38:56;31.00;91.00
19085;DHT22;9675;51.538;6.728;2022-08-11T10:41:27;31.10;90.80
19085;DHT22;9675;51.538;6.728;2022-08-11T10:44:13;31.20;90.70
19085;DHT22;9675;51.538;6.728;2022-08-11T10:46:41;31.30;90.40
19085;DHT22;9675;51.538;6.728;2022-08-11T10:49:26;31.30;90.20
19085;DHT22;9675;51.538;6.728;2022-08-11T10:51:55;31.40;89.70
19085;DHT22;9675;51.538;6.728;2022-08-11T10:54:41;31.50;89.40
19085;DHT22;9675;51.538;6.728;2022-08-11T10:57:28;31.60;89.00
19085;DHT22;9675;51.538;6.728;2022-08-11T11:00:15;31.70;89.30
19085;DHT22;9675;51.538;6.728;2022-08-11T11:02:44;31.80;90.00
19085;DHT22;9675;51.538;6.728;2022-08-11T11:05:20;32.00;88.60
19085;DHT22;9675;51.538;6.728;2022-08-11T11:07:54;32.10;88.60
19085;DHT22;9675;51.538;6.728;2022-08-11T11:10:28;32.20;88.20
19085;DHT22;9675;51.538;6.728;2022-08-11T11:12:59;32.30;87.70
19085;DHT22;9675;51.538;6.728;2022-08-11T11:15:45;32.30;86.70
19085;DHT22;9675;51.538;6.728;2022-08-11T11:18:33;32.40;86.30
19085;DHT22;9675;51.538;6.728;2022-08-11T11:21:05;32.50;86.10
19085;DHT22;9675;51.538;6.728;2022-08-11T11:23:39;32.60;86.00
19085;DHT22;9675;51.538;6.728;2022-08-11T11:26:35;32.60;85.70
19085;DHT22;9675;51.538;6.728;2022-08-11T11:32:15;32.80;84.90
19085;DHT22;9675;51.538;6.728;2022-08-11T11:35:12;33.00;84.80
19085;DHT22;9675;51.538;6.728;2022-08-11T11:37:53;33.10;84.50
19085;DHT22;9675;51.538;6.728;2022-08-11T11:40:23;33.30;84.80
19085;DHT22;9675;51.538;6.728;2022-08-11T11:42:53;33.40;84.80
19085;DHT22;9675;51.538;6.728;2022-08-11T11:45:24;33.50;84.50
19085;DHT22;9675;51.538;6.728;2022-08-11T11:47:54;33.60;83.80
19085;DHT22;9675;51.538;6.728;2022-08-11T11:50:24;33.50;82.50
19085;DHT22;9675;51.538;6.728;2022-08-11T11:52:54;33.60;81.60
19085;DHT22;9675;51.538;6.728;2022-08-11T11:55:25;33.70;81.90
19085;DHT22;9675;51.538;6.728;2022-08-11T11:57:53;33.80;82.30
19085;DHT22;9675;51.538;6.728;2022-08-11T12:00:43;33.90;81.90
19085;DHT22;9675;51.538;6.728;2022-08-11T12:03:29;34.00;83.10
19085;DHT22;9675;51.538;6.728;2022-08-11T12:05:57;34.10;81.60
19085;DHT22;9675;51.538;6.728;2022-08-11T12:08:26;34.20;81.20
19085;DHT22;9675;51.538;6.728;2022-08-11T12:10:57;34.20;80.70
19085;DHT22;9675;51.538;6.728;2022-08-11T12:13:48;34.40;80.60
19085;DHT22;9675;51.538;6.728;2022-08-11T12:16:22;34.40;81.10
19085;DHT22;9675;51.538;6.728;2022-08-11T12:18:51;34.50;80.10
19085;DHT22;9675;51.538;6.728;2022-08-11T12:21:21;34.60;79.40
19085;DHT22;9675;51.538;6.728;2022-08-11T12:23:50;34.60;79.80
19085;DHT22;9675;51.538;6.728;2022-08-11T12:26:36;34.60;79.50
19085;DHT22;9675;51.538;6.728;2022-08-11T12:29:22;34.60;78.10
19085;DHT22;9675;51.538;6.728;2022-08-11T12:31:54;34.70;78.40
19085;DHT22;9675;51.538;6.728;2022-08-11T12:34:26;34.70;77.80
19085;DHT22;9675;51.538;6.728;2022-08-11T12:37:00;34.60;77.00
19085;DHT22;9675;51.538;6.728;2022-08-11T12:39:38;34.60;76.80
19085;DHT22;9675;51.538;6.728;2022-08-11T12:42:28;34.70;76.80
19085;DHT22;9675;51.538;6.728;2022-08-11T12:45:16;34.80;76.70
19085;DHT22;9675;51.538;6.728;2022-08-11T12:48:17;34.90;76.80
19085;DHT22;9675;51.538;6.728;2022-08-11T12:51:06;35.00;76.80
19085;DHT22;9675;51.538;6.728;2022-08-11T12:53:56;35.20;77.30
19085;DHT22;9675;51.538;6.728;2022-08-11T12:56:45;35.30;77.20
19085;DHT22;9675;51.538;6.728;2022-08-11T12:59:41;35.40;77.00
19085;DHT22;9675;51.538;6.728;2022-08-11T13:02:27;35.50;77.00
19085;DHT22;9675;51.538;6.728;2022-08-11T13:05:15;35.50;75.70
19085;DHT22;9675;51.538;6.728;2022-08-11T13:07:44;35.50;75.60
19085;DHT22;9675;51.538;6.728;2022-08-11T13:10:16;35.60;75.80
19085;DHT22;9675;51.538;6.728;2022-08-11T13:13:07;35.50;75.30
19085;DHT22;9675;51.538;6.728;2022-08-11T13:15:34;35.60;74.80
19085;DHT22;9675;51.538;6.728;2022-08-11T13:18:02;35.70;75.20
19085;DHT22;9675;51.538;6.728;2022-08-11T13:20:34;35.70;74.70
19085;DHT22;9675;51.538;6.728;2022-08-11T13:23:02;35.70;74.40
19085;DHT22;9675;51.538;6.728;2022-08-11T13:25:31;35.80;74.60
19085;DHT22;9675;51.538;6.728;2022-08-11T13:27:59;35.80;74.20
19085;DHT22;9675;51.538;6.728;2022-08-11T13:30:29;35.80;73.90
19085;DHT22;9675;51.538;6.728;2022-08-11T13:33:15;35.80;74.00
19085;DHT22;9675;51.538;6.728;2022-08-11T13:35:47;35.80;74.10
19085;DHT22;9675;51.538;6.728;2022-08-11T13:38:19;35.90;74.00
19085;DHT22;9675;51.538;6.728;2022-08-11T13:40:49;35.90;74.00
19085;DHT22;9675;51.538;6.728;2022-08-11T13:43:19;36.00;74.10
19085;DHT22;9675;51.538;6.728;2022-08-11T13:45:48;36.10;74.10
19085;DHT22;9675;51.538;6.728;2022-08-11T13:48:38;36.20;74.10
19085;DHT22;9675;51.538;6.728;2022-08-11T13:51:09;36.20;74.00
19085;DHT22;9675;51.538;6.728;2022-08-11T13:53:54;36.10;73.40
19085;DHT22;9675;51.538;6.728;2022-08-11T13:56:23;36.10;72.60
19085;DHT22;9675;51.538;6.728;2022-08-11T13:58:53;36.00;72.40
19085;DHT22;9675;51.538;6.728;2022-08-11T14:01:24;36.00;72.60
19085;DHT22;9675;51.538;6.728;2022-08-11T14:03:54;36.00;72.80
19085;DHT22;9675;51.538;6.728;2022-08-11T14:06:26;36.20;73.10
19085;DHT22;9675;51.538;6.728;2022-08-11T14:08:54;36.20;73.00
19085;DHT22;9675;51.538;6.728;2022-08-11T14:11:22;36.10;72.90
19085;DHT22;9675;51.538;6.728;2022-08-11T14:14:09;36.20;72.70
19085;DHT22;9675;51.538;6.728;2022-08-11T14:16:45;36.20;71.80
19085;DHT22;9675;51.538;6.728;2022-08-11T14:19:16;36.20;72.10
19085;DHT22;9675;51.538;6.728;2022-08-11T14:21:50;36.10;71.70
19085;DHT22;9675;51.538;6.728;2022-08-11T14:24:38;36.10;72.20
19085;DHT22;9675;51.538;6.728;2022-08-11T14:27:08;36.10;71.80
19085;DHT22;9675;51.538;6.728;2022-08-11T14:29:39;36.10;71.90
19085;DHT22;9675;51.538;6.728;2022-08-11T14:32:09;36.20;72.10
19085;DHT22;9675;51.538;6.728;2022-08-11T14:34:40;36.20;72.20
19085;DHT22;9675;51.538;6.728;2022-08-11T14:37:12;36.20;72.00
19085;DHT22;9675;51.538;6.728;2022-08-11T14:39:43;36.20;71.80
19085;DHT22;9675;51.538;6.728;2022-08-11T14:42:14;36.20;71.50
19085;DHT22;9675;51.538;6.728;2022-08-11T14:45:04;36.20;71.70
19085;DHT22;9675;51.538;6.728;2022-08-11T14:48:04;36.20;71.80
19085;DHT22;9675;51.538;6.728;2022-08-11T14:50:34;36.20;72.00
19085;DHT22;9675;51.538;6.728;2022-08-11T14:53:06;36.20;72.10
19085;DHT22;9675;51.538;6.728;2022-08-11T14:55:38;36.30;72.10
19085;DHT22;9675;51.538;6.728;2022-08-11T14:58:29;36.30;71.90
19085;DHT22;9675;51.538;6.728;2022-08-11T15:01:00;36.30;71.70
19085;DHT22;9675;51.538;6.728;2022-08-11T15:03:49;36.30;72.70
19085;DHT22;9675;51.538;6.728;2022-08-11T15:06:17;36.30;72.60
19085;DHT22;9675;51.538;6.728;2022-08-11T15:08:46;36.30;72.10
19085;DHT22;9675;51.538;6.728;2022-08-11T15:11:25;36.30;72.70
19085;DHT22;9675;51.538;6.728;2022-08-11T15:14:13;36.30;71.80
19085;DHT22;9675;51.538;6.728;2022-08-11T15:17:01;36.30;72.10
19085;DHT22;9675;51.538;6.728;2022-08-11T15:19:36;36.30;71.90
19085;DHT22;9675;51.538;6.728;2022-08-11T15:22:26;36.30;71.80
19085;DHT22;9675;51.538;6.728;2022-08-11T15:25:13;36.30;71.70
19085;DHT22;9675;51.538;6.728;2022-08-11T15:27:42;36.20;71.40
19085;DHT22;9675;51.538;6.728;2022-08-11T15:30:30;36.20;71.50
19085;DHT22;9675;51.538;6.728;2022-08-11T15:33:17;36.10;68.10
19085;DHT22;9675;51.538;6.728;2022-08-11T15:36:06;36.00;69.30
19085;DHT22;9675;51.538;6.728;2022-08-11T15:38:56;36.00;69.90
19085;DHT22;9675;51.538;6.728;2022-08-11T15:41:35;36.00;69.90
19085;DHT22;9675;51.538;6.728;2022-08-11T15:44:26;36.00;69.90
19085;DHT22;9675;51.538;6.728;2022-08-11T15:47:16;36.00;69.70
19085;DHT22;9675;51.538;6.728;2022-08-11T15:49:46;36.10;70.00
19085;DHT22;9675;51.538;6.728;2022-08-11T15:52:20;36.10;70.80
19085;DHT22;9675;51.538;6.728;2022-08-11T15:54:51;36.20;70.10
19085;DHT22;9675;51.538;6.728;2022-08-11T15:57:20;36.20;70.10
19085;DHT22;9675;51.538;6.728;2022-08-11T16:00:06;36.20;70.00
19085;DHT22;9675;51.538;6.728;2022-08-11T16:02:52;36.20;69.90
19085;DHT22;9675;51.538;6.728;2022-08-11T16:05:41;36.20;69.60
19085;DHT22;9675;51.538;6.728;2022-08-11T16:08:10;36.20;70.70
19085;DHT22;9675;51.538;6.728;2022-08-11T16:10:41;36.20;69.30
19085;DHT22;9675;51.538;6.728;2022-08-11T16:13:12;36.20;69.60
19085;DHT22;9675;51.538;6.728;2022-08-11T16:15:59;36.10;69.50
19085;DHT22;9675;51.538;6.728;2022-08-11T16:18:42;36.00;69.40
19085;DHT22;9675;51.538;6.728;2022-08-11T16:21:17;36.00;69.20
19085;DHT22;9675;51.538;6.728;2022-08-11T16:23:49;36.00;69.50
19085;DHT22;9675;51.538;6.728;2022-08-11T16:26:20;36.00;69.80
19085;DHT22;9675;51.538;6.728;2022-08-11T16:28:52;36.10;69.90
19085;DHT22;9675;51.538;6.728;2022-08-11T16:31:23;36.00;69.50
19085;DHT22;9675;51.538;6.728;2022-08-11T16:33:52;35.90;69.60
19085;DHT22;9675;51.538;6.728;2022-08-11T16:36:23;35.90;69.50
19085;DHT22;9675;51.538;6.728;2022-08-11T16:39:11;35.90;69.40
19085;DHT22;9675;51.538;6.728;2022-08-11T16:41:44;35.80;69.20
19085;DHT22;9675;51.538;6.728;2022-08-11T16:44:32;35.80;69.30
19085;DHT22;9675;51.538;6.728;2022-08-11T16:47:18;35.80;69.50
19085;DHT22;9675;51.538;6.728;2022-08-11T16:49:51;35.70;68.50
19085;DHT22;9675;51.538;6.728;2022-08-11T16:52:20;35.50;69.00
19085;DHT22;9675;51.538;6.728;2022-08-11T16:54:49;35.50;69.80
19085;DHT22;9675;51.538;6.728;2022-08-11T16:57:22;35.50;70.00
19085;DHT22;9675;51.538;6.728;2022-08-11T17:00:12;35.50;70.00
19085;DHT22;9675;51.538;6.728;2022-08-11T17:02:44;35.40;69.40
19085;DHT22;9675;51.538;6.728;2022-08-11T17:05:34;35.40;69.70
19085;DHT22;9675;51.538;6.728;2022-08-11T17:08:27;35.20;69.20
19085;DHT22;9675;51.538;6.728;2022-08-11T17:11:15;35.10;68.90
19085;DHT22;9675;51.538;6.728;2022-08-11T17:14:09;35.00;69.00
19085;DHT22;9675;51.538;6.728;2022-08-11T17:16:40;35.00;68.50
19085;DHT22;9675;51.538;6.728;2022-08-11T17:19:10;34.90;69.10
19085;DHT22;9675;51.538;6.728;2022-08-11T17:21:43;34.80;69.10
19085;DHT22;9675;51.538;6.728;2022-08-11T17:24:26;34.70;71.50
19085;DHT22;9675;51.538;6.728;2022-08-11T17:26:56;34.70;69.10
19085;DHT22;9675;51.538;6.728;2022-08-11T17:29:29;34.60;68.10
19085;DHT22;9675;51.538;6.728;2022-08-11T17:32:01;34.50;68.50
19085;DHT22;9675;51.538;6.728;2022-08-11T17:34:51;34.50;69.20
19085;DHT22;9675;51.538;6.728;2022-08-11T17:37:43;34.40;69.30
19085;DHT22;9675;51.538;6.728;2022-08-11T17:40:15;34.30;68.80
19085;DHT22;9675;51.538;6.728;2022-08-11T17:42:50;34.30;68.80
19085;DHT22;9675;51.538;6.728;2022-08-11T17:45:45;34.30;69.50
19085;DHT22;9675;51.538;6.728;2022-08-11T17:48:33;34.20;68.40
19085;DHT22;9675;51.538;6.728;2022-08-11T17:51:06;34.10;69.10
19085;DHT22;9675;51.538;6.728;2022-08-11T17:53:37;34.10;69.40
19085;DHT22;9675;51.538;6.728;2022-08-11T17:56:24;34.10;69.60
19085;DHT22;9675;51.538;6.728;2022-08-11T17:59:11;34.00;71.60
19085;DHT22;9675;51.538;6.728;2022-08-11T18:02:00;34.00;71.00
19085;DHT22;9675;51.538;6.728;2022-08-11T18:04:47;33.90;71.10
19085;DHT22;9675;51.538;6.728;2022-08-11T18:07:17;33.80;71.30